Accueil
METAR-TAF:

METAR-TAF

Aéroports :

Aéroport de Sion

Sion, Suisse

latitude: 46-13N, longitude: 007-20E, altitude: 482 m

Observation

Le bulletin a été fait il y a 31 minutes, à 03:20 UTC
Vent 6 kt de ouest, variant entre sud-ouest et ouest/nord-ouest
Température 4°C
Humidité 70%
Pression 1011 hPa
Visibilité 10 km ou plus
Nuages fragmentés à une hauteur de 7000 ft

METAR: LSGS 240320Z AUTO 27006KT 220V290 9999 BKN070 04/M01 Q1011

Heure: 05:51 (03:51 UTC)

Prévision

Le bulletin a été fait il y a 1 heure et 26 minutes, à 02:25 UTC
Prévision valable du 24 à 03 UTC au 24 à 12 UTC
Vent 5 kt de ouest/sud-ouest
Visibilité 10 km ou plus
Nuages fragmentés à une hauteur de 7000 ft

TAF: LSGS 240225Z 2403/2412 25005KT 9999 BKN070

Observations et prévisions météorologiques de plus de 4000 aéroports (messages METAR et TAF).

Les stations disponibles sont représentées par des disques jaunes et rouges sur la carte.

Passer la souris dessus pour voir le nom de la station.

Cliquer dessus pour voir les observations et prévisions météorologiques.

Pour changer de carte: cliquez sur les boutons verts avec une croix noire pour zoomer, sur le bouton vert avec un tiret pour effectuer un zoom arrière, ou sur les flèches vertes pour les cartes adjacentes.


METAR-TAF: